Renner Field-Goodland Municipal Airport
KGLD : rendu visible

Aérodrome :











RETROUVEZ-NOUS SUR...

 
LOGIN :

S'inscrire | Disclaimer

   EN    FR    IT 

 









Légende :    VFR   VFR Marginal   IFR   IFR Intensif   IFR Très Intensif
Visi : 
Plafond : 
>= 8 km
>= 3000ft
5 à 8 km
1000 à 3000 ft
1500m à 5 km
500 à 1000 ft
800 à 1500m
200 à 500 ft
< 800m
< 200 ft
Symboles :   Orages  Brouillard  Fortes neiges  Fortes précipitations  Vent > 20 kt






- Altitude de l'aérodrome : 3656 ft


KGLD - Renner Field-Goodland Municipal

DERNIER METAR :
  • 240553Z AUTO 32003KT 10SM FEW009 FEW015 OVC085 02/01 A2991 RMK AO2 SLP119 60004 T00170006 10050 20017 50002

METARs EXPIRÉS :
  • 240543Z AUTO 32004KT 10SM SCT008 BKN080 OVC095 02/01 A2991 RMK AO2 T00170006
  • 240453Z AUTO 34005KT 10SM OVC008 02/01 A2991 RMK AO2 SLP127 T00220011
  • 240446Z AUTO 35004KT 10SM OVC009 02/01 A2991 RMK AO2 T00220006
  • 240353Z AUTO 03004KT 10SM SCT011 OVC065 02/01 A2991 RMK AO2 UPE02 SLP129 P0000 T00220011
  • 240336Z AUTO 06003KT 10SM BKN011 OVC060 02/01 A2990 RMK AO2 UPE02 P0000 T00220011

TAF KGLD
Valide du 24 à 06h jusqu'au 25 à 06h UTC


240520Z 2406/2506 VRB06KT P6SM SCT010 OVC060
TEMPO 2406/2407 BKN010
FM241500 25008KT P6SM SCT100
FM241700 32015G23KT P6SM VCSH BKN070
FM242000 32024G34KT P6SM BKN070
FM250100 32013KT P6SM SCT100



MET'MAP, la Météo Aéronautique d'un coup d'oeil ! - Copyright ORBIFLY Décembre 2007 - Disclaimer

ORBIFLY MET'MAP TEAM :

Programmation & Développement : Alexandra Zaïnal
Sur une idée originale de : Baudouin d'Aumeries
Assistance à la programmation : Marc-Olivier Méhu
Soutien technique & logistique : Manuel Goepfert

Contact : metmap@orbifly.com




SOURCES & CREDITS :

   NOAA       Earth
Advisory